Pleasant Hill, MO

4:19 PM CDT on August 23, 2016 (GMT -0500)
Hunters Ridge | | Change Station

Elev 944 ft 38.81 °N, 94.25 °W | Updated 1 second ago

Mostly Cloudy
Mostly Cloudy
83.6 °F
Feels Like 92 °F
N
6.0
Wind Variable Wind from South
Gusts 18.0 mph

Today
High -- | Low -- °F
--% Chance of Precip.
Yesterday
High -- | Low -- °F
Precip. -- in
Pressure 29.96 in
Visibility 10.0 miles
Clouds Scattered Clouds 2900 ft
Mostly Cloudy 3900 ft
Mostly Cloudy 4600 ft
Heat Index 92 °F
Dew Point 76 °F
Humidity 77%
Rainfall 0.00 in
Snow Depth Not available.
6:38 AM 7:59 PM
Waning Gibbous, 64% visible
METAR KLXT 232053Z AUTO 18021G29KT 10SM SCT029 BKN039 BKN046 29/23 A2999 RMK AO2 PK WND 18029/2052 SLP145 T02940228 58016
Pressure 29.96 in
Visibility 10.0 miles
Clouds Scattered Clouds 2900 ft
Mostly Cloudy 3900 ft
Mostly Cloudy 4600 ft
Heat Index 92 °F
Dew Point 76 °F
Humidity 77%
Rainfall 0.00 in
Snow Depth Not available.
6:38 AM 7:59 PM
Waning Gibbous, 64% visible
METAR KLXT 232053Z AUTO 18021G29KT 10SM SCT029 BKN039 BKN046 29/23 A2999 RMK AO2 PK WND 18029/2052 SLP145 T02940228 58016

10-Day Weather Forecast

Almanac

Astronomy

Aug. 23, 2016 Rise Set
Actual Time
Civil Twilight
Nautical Twilight
Astronomical Twilight
Moon
Length of Visible Light
Length of Day
Tomorrow will be .
, % of the Moon is Illuminated

Today's Extremes

State Highs State Lows

Community

WunderPhotos

Upload Photos

1,934,456 photos uploaded!

WunderBlog® & News

Nearby

Air Quality

  Air Quality AQ Index Pollutant
Not available.

Snow Depth

Station Depth Elevation

Earthquake Activity

City Distance Mag. Time & Date
Minimum magnitude displayed is 2.5.

Coastal Water Temperatures

Place Temperature

Stations

Nearby Weather Stations

Station Location Temp. Windchill Dew Point Humidity Wind Precip. Elev Updated Type
                   

Watches & Warnings

There are currently no watches in effect.